Terminal Aerodrome Forecast
Issued by NWS Sterling, VA

Current Version | Previous Version | Graphics & Text | Print | Product List | Glossary On
Versions: 1 2 3 4 5 6 7 8 9 10 11 12 13 14 15 16 17 18 19 20 21
718
FTUS41 KLWX 211127
TAFDCA
TAF
KDCA 211127Z 2112/2212 23004KT P6SM BKN200
     FM211400 24005KT P6SM SCT250
     FM211800 25009KT P6SM SCT070
     FM212000 24007KT P6SM BKN070
     FM220000 21006KT P6SM SCT060
     FM220900 27004KT P6SM SCT060=

USA.gov is the U.S. government's official web portal to all federal, state and local government web resources and services.